METAR stanice u blizini

 

LHUD - Szeged, Hungary
Ažurirano: 26/06/2019 04:45
NOT Current
Vedro
Vedro
 Pravac vetra SZ
Vetar: SZ 2 km/h
Temperatura: 20°C
Tačka rose: 19°C
Vlažnost: 94%
Pritisak: 1024 hPa
Pregled: Vedro
Vidljivost: greater than 10 km
2019/06/26 02:45 LHUD 260245Z 32001KT CAVOK 20/19 Q1024
LHKE - Kecskemet, Hungary
Ažurirano: 26/06/2019 06:15
Delimično oblačno
Delimično oblačno
 Pravac vetra ISI
Vetar: ISI 4 km/h
Temperatura: 22°C
Tačka rose: 20°C
Vlažnost: 88%
Pritisak: 1024 hPa
Oblaci: Delimično oblačno
Vidljivost: 8 km
2019/06/26 04:15 LHKE 260415Z 06002KT 8000 NSC 22/20 Q1024 NOSIG RMK BLU
LDOS - Osijek, Croatia
Ažurirano: 26/06/2019 06:30
Vedro
Vedro
 Pravac vetra JI
Vetar: JI 6 km/h
Temperatura: 21°C
Tačka rose: 20°C
Vlažnost: 94%
Pritisak: 1024 hPa
Pregled: Vedro
Vidljivost: greater than 10 km
2019/06/26 04:30 LDOS 260430Z 14003KT CAVOK 21/20 Q1024
 
LYBE - Beograd / Surcin, Serbia
Ažurirano: 26/06/2019 06:30
Vedro
Vedro
 Pravac vetra JI
Vetar: JI 4 km/h
Temperatura: 22°C
Tačka rose: 20°C
Vlažnost: 88%
Pritisak: 1024 hPa
Pregled: Vedro
Vidljivost: greater than 10 km
2019/06/26 04:30 LYBE 260430Z 13002KT CAVOK 22/20 Q1024 NOSIG
LYVR - Vrsac, Serbia
Ažurirano: 26/06/2019 06:30
Vedro
Vedro
 Pravac vetra varies
Vetar: varies 4 km/h
Temperatura: 21°C
Tačka rose: 18°C
Vlažnost: 83%
Pritisak: 1024 hPa
Pregled: Vedro
Vidljivost: greater than 10 km
2019/06/26 04:30 LYVR 260430Z VRB02KT CAVOK 21/18 Q1024 NOSIG
LRTR - Timisoara, Romania
Ažurirano: 26/06/2019 06:30
Vedro
Vedro
 Pravac vetra I
Vetar: I 7 km/h
Temperatura: 21°C
Tačka rose: 21°C
Vlažnost: 100%
Pritisak: 1024 hPa
Pregled: Vedro
Vidljivost: greater than 10 km
2019/06/26 04:30 LRTR 260430Z 09004KT CAVOK 21/21 Q1024